sensor_id;sensor_type;location;lat;lon;timestamp;P1;durP1;ratioP1;P2;durP2;ratioP2
76138;SDS011;65138;50.946;7.074;2022-12-18T05:46:12;4.38;;;2.42;;
76138;SDS011;65138;50.946;7.074;2022-12-18T05:48:40;4.43;;;2.58;;
76138;SDS011;65138;50.946;7.074;2022-12-18T05:51:07;5.82;;;2.72;;
76138;SDS011;65138;50.946;7.074;2022-12-18T05:53:35;4.70;;;2.75;;
76138;SDS011;65138;50.946;7.074;2022-12-18T05:56:02;6.85;;;2.78;;
76138;SDS011;65138;50.946;7.074;2022-12-18T05:58:29;6.00;;;2.80;;
76138;SDS011;65138;50.946;7.074;2022-12-18T06:00:55;4.80;;;2.47;;
76138;SDS011;65138;50.946;7.074;2022-12-18T06:03:21;4.70;;;2.70;;
76138;SDS011;65138;50.946;7.074;2022-12-18T06:05:46;4.43;;;2.78;;
76138;SDS011;65138;50.946;7.074;2022-12-18T06:08:12;3.75;;;2.03;;
76138;SDS011;65138;50.946;7.074;2022-12-18T06:10:39;4.32;;;2.50;;
76138;SDS011;65138;50.946;7.074;2022-12-18T06:13:06;5.22;;;2.53;;
76138;SDS011;65138;50.946;7.074;2022-12-18T06:15:32;4.03;;;2.20;;
76138;SDS011;65138;50.946;7.074;2022-12-18T06:18:00;5.40;;;2.30;;
76138;SDS011;65138;50.946;7.074;2022-12-18T06:20:26;5.85;;;2.60;;
76138;SDS011;65138;50.946;7.074;2022-12-18T06:22:51;3.25;;;2.35;;
76138;SDS011;65138;50.946;7.074;2022-12-18T06:25:17;5.35;;;2.47;;
76138;SDS011;65138;50.946;7.074;2022-12-18T06:27:43;5.07;;;2.10;;
76138;SDS011;65138;50.946;7.074;2022-12-18T06:30:09;5.40;;;2.70;;
76138;SDS011;65138;50.946;7.074;2022-12-18T06:32:35;3.65;;;2.13;;
76138;SDS011;65138;50.946;7.074;2022-12-18T06:35:00;4.80;;;2.22;;
76138;SDS011;65138;50.946;7.074;2022-12-18T06:37:26;5.35;;;2.78;;
76138;SDS011;65138;50.946;7.074;2022-12-18T06:39:52;3.58;;;2.22;;
76138;SDS011;65138;50.946;7.074;2022-12-18T06:42:18;5.15;;;2.58;;
76138;SDS011;65138;50.946;7.074;2022-12-18T06:44:44;3.75;;;2.17;;
76138;SDS011;65138;50.946;7.074;2022-12-18T06:47:09;3.78;;;2.20;;
76138;SDS011;65138;50.946;7.074;2022-12-18T06:49:35;5.93;;;2.35;;
76138;SDS011;65138;50.946;7.074;2022-12-18T06:52:01;4.28;;;2.30;;
76138;SDS011;65138;50.946;7.074;2022-12-18T06:54:26;3.97;;;2.65;;
76138;SDS011;65138;50.946;7.074;2022-12-18T06:56:52;4.53;;;2.42;;
76138;SDS011;65138;50.946;7.074;2022-12-18T06:59:18;4.50;;;2.10;;
76138;SDS011;65138;50.946;7.074;2022-12-18T07:01:43;4.10;;;2.13;;
76138;SDS011;65138;50.946;7.074;2022-12-18T07:04:09;5.15;;;2.28;;
76138;SDS011;65138;50.946;7.074;2022-12-18T07:06:35;5.10;;;2.67;;
76138;SDS011;65138;50.946;7.074;2022-12-18T07:09:00;4.25;;;2.22;;
76138;SDS011;65138;50.946;7.074;2022-12-18T07:11:26;4.88;;;2.60;;
76138;SDS011;65138;50.946;7.074;2022-12-18T07:13:52;4.15;;;2.28;;
76138;SDS011;65138;50.946;7.074;2022-12-18T07:16:19;3.97;;;2.33;;
76138;SDS011;65138;50.946;7.074;2022-12-18T07:18:45;4.40;;;2.20;;
76138;SDS011;65138;50.946;7.074;2022-12-18T07:21:16;4.55;;;2.35;;
76138;SDS011;65138;50.946;7.074;2022-12-18T07:23:44;3.90;;;2.33;;
76138;SDS011;65138;50.946;7.074;2022-12-18T07:26:13;4.32;;;2.33;;
76138;SDS011;65138;50.946;7.074;2022-12-18T07:28:40;6.05;;;2.47;;
76138;SDS011;65138;50.946;7.074;2022-12-18T07:31:07;8.05;;;2.85;;
76138;SDS011;65138;50.946;7.074;2022-12-18T07:33:35;9.27;;;3.28;;
76138;SDS011;65138;50.946;7.074;2022-12-18T07:36:02;6.65;;;2.78;;
76138;SDS011;65138;50.946;7.074;2022-12-18T07:38:29;7.38;;;3.25;;
76138;SDS011;65138;50.946;7.074;2022-12-18T07:41:00;4.95;;;2.97;;
76138;SDS011;65138;50.946;7.074;2022-12-18T07:43:30;6.15;;;3.03;;
76138;SDS011;65138;50.946;7.074;2022-12-18T07:45:56;7.30;;;3.05;;
76138;SDS011;65138;50.946;7.074;2022-12-18T07:48:21;8.60;;;3.10;;
76138;SDS011;65138;50.946;7.074;2022-12-18T07:50:47;6.75;;;2.92;;
76138;SDS011;65138;50.946;7.074;2022-12-18T07:53:12;5.15;;;3.40;;
76138;SDS011;65138;50.946;7.074;2022-12-18T07:55:39;5.55;;;3.28;;
76138;SDS011;65138;50.946;7.074;2022-12-18T07:58:06;5.03;;;3.25;;
76138;SDS011;65138;50.946;7.074;2022-12-18T08:00:32;6.72;;;3.22;;
76138;SDS011;65138;50.946;7.074;2022-12-18T08:02:58;6.18;;;3.03;;
76138;SDS011;65138;50.946;7.074;2022-12-18T08:05:24;8.00;;;3.53;;
76138;SDS011;65138;50.946;7.074;2022-12-18T08:07:50;7.80;;;3.60;;
76138;SDS011;65138;50.946;7.074;2022-12-18T08:10:16;4.97;;;3.00;;
76138;SDS011;65138;50.946;7.074;2022-12-18T08:12:42;12.68;;;3.80;;
76138;SDS011;65138;50.946;7.074;2022-12-18T08:15:07;6.78;;;3.13;;
76138;SDS011;65138;50.946;7.074;2022-12-18T08:17:33;9.27;;;3.53;;
76138;SDS011;65138;50.946;7.074;2022-12-18T08:19:59;7.75;;;3.70;;
76138;SDS011;65138;50.946;7.074;2022-12-18T08:22:24;9.07;;;3.47;;
76138;SDS011;65138;50.946;7.074;2022-12-18T08:24:50;5.93;;;3.13;;
76138;SDS011;65138;50.946;7.074;2022-12-18T08:27:15;6.47;;;3.28;;
76138;SDS011;65138;50.946;7.074;2022-12-18T08:29:41;8.55;;;3.67;;
76138;SDS011;65138;50.946;7.074;2022-12-18T08:32:07;7.03;;;3.72;;
76138;SDS011;65138;50.946;7.074;2022-12-18T08:34:32;6.10;;;3.13;;
76138;SDS011;65138;50.946;7.074;2022-12-18T08:36:58;5.97;;;3.17;;
76138;SDS011;65138;50.946;7.074;2022-12-18T08:39:23;6.10;;;3.30;;
76138;SDS011;65138;50.946;7.074;2022-12-18T08:41:49;5.72;;;3.63;;
76138;SDS011;65138;50.946;7.074;2022-12-18T08:44:33;5.85;;;3.15;;
76138;SDS011;65138;50.946;7.074;2022-12-18T08:47:05;6.97;;;3.30;;
76138;SDS011;65138;50.946;7.074;2022-12-18T08:49:32;6.05;;;3.25;;
76138;SDS011;65138;50.946;7.074;2022-12-18T08:51:58;4.40;;;2.80;;
76138;SDS011;65138;50.946;7.074;2022-12-18T08:54:24;5.80;;;2.85;;
76138;SDS011;65138;50.946;7.074;2022-12-18T08:56:50;4.88;;;2.90;;
76138;SDS011;65138;50.946;7.074;2022-12-18T08:59:16;6.00;;;2.90;;
76138;SDS011;65138;50.946;7.074;2022-12-18T09:01:42;7.07;;;3.03;;
76138;SDS011;65138;50.946;7.074;2022-12-18T09:04:11;6.70;;;3.20;;
76138;SDS011;65138;50.946;7.074;2022-12-18T09:06:37;5.85;;;2.70;;
76138;SDS011;65138;50.946;7.074;2022-12-18T09:09:03;4.95;;;2.83;;
76138;SDS011;65138;50.946;7.074;2022-12-18T09:11:30;4.82;;;2.95;;
76138;SDS011;65138;50.946;7.074;2022-12-18T09:13:56;4.75;;;2.53;;
76138;SDS011;65138;50.946;7.074;2022-12-18T09:16:24;5.43;;;2.88;;
76138;SDS011;65138;50.946;7.074;2022-12-18T09:18:50;5.35;;;2.90;;
76138;SDS011;65138;50.946;7.074;2022-12-18T09:21:17;4.07;;;2.58;;
76138;SDS011;65138;50.946;7.074;2022-12-18T09:23:48;5.45;;;3.17;;
76138;SDS011;65138;50.946;7.074;2022-12-18T09:26:15;5.13;;;2.78;;
76138;SDS011;65138;50.946;7.074;2022-12-18T09:28:40;8.48;;;3.20;;
76138;SDS011;65138;50.946;7.074;2022-12-18T09:31:07;4.40;;;2.60;;
76138;SDS011;65138;50.946;7.074;2022-12-18T09:33:34;4.78;;;2.78;;
76138;SDS011;65138;50.946;7.074;2022-12-18T09:36:05;6.45;;;2.92;;
76138;SDS011;65138;50.946;7.074;2022-12-18T09:38:32;4.72;;;2.75;;
76138;SDS011;65138;50.946;7.074;2022-12-18T09:41:00;5.57;;;3.10;;
76138;SDS011;65138;50.946;7.074;2022-12-18T09:43:46;4.93;;;2.95;;
76138;SDS011;65138;50.946;7.074;2022-12-18T09:46:16;6.15;;;3.67;;
76138;SDS011;65138;50.946;7.074;2022-12-18T09:49:07;5.28;;;3.70;;
76138;SDS011;65138;50.946;7.074;2022-12-18T09:51:39;4.60;;;3.22;;
76138;SDS011;65138;50.946;7.074;2022-12-18T09:54:14;5.47;;;3.08;;
76138;SDS011;65138;50.946;7.074;2022-12-18T09:56:45;5.40;;;3.10;;
76138;SDS011;65138;50.946;7.074;2022-12-18T09:59:46;6.63;;;3.63;;
76138;SDS011;65138;50.946;7.074;2022-12-18T10:02:15;5.68;;;2.80;;
76138;SDS011;65138;50.946;7.074;2022-12-18T10:07:09;6.05;;;3.10;;
76138;SDS011;65138;50.946;7.074;2022-12-18T10:09:51;4.93;;;2.65;;
76138;SDS011;65138;50.946;7.074;2022-12-18T10:12:32;4.97;;;3.03;;
76138;SDS011;65138;50.946;7.074;2022-12-18T10:15:23;5.80;;;3.17;;
76138;SDS011;65138;50.946;7.074;2022-12-18T10:17:59;5.80;;;3.47;;
76138;SDS011;65138;50.946;7.074;2022-12-18T10:20:38;4.28;;;2.60;;
76138;SDS011;65138;50.946;7.074;2022-12-18T10:23:22;4.30;;;2.72;;
76138;SDS011;65138;50.946;7.074;2022-12-18T10:26:03;4.70;;;2.83;;
76138;SDS011;65138;50.946;7.074;2022-12-18T10:28:35;4.65;;;2.72;;
76138;SDS011;65138;50.946;7.074;2022-12-18T10:31:02;5.35;;;3.15;;
76138;SDS011;65138;50.946;7.074;2022-12-18T10:33:31;5.95;;;2.63;;
76138;SDS011;65138;50.946;7.074;2022-12-18T10:35:58;4.50;;;2.63;;
76138;SDS011;65138;50.946;7.074;2022-12-18T10:38:26;5.18;;;3.13;;
76138;SDS011;65138;50.946;7.074;2022-12-18T10:40:57;4.75;;;3.00;;
76138;SDS011;65138;50.946;7.074;2022-12-18T10:43:31;4.97;;;2.95;;
76138;SDS011;65138;50.946;7.074;2022-12-18T10:46:08;4.30;;;3.28;;
76138;SDS011;65138;50.946;7.074;2022-12-18T10:51:15;6.50;;;3.20;;
76138;SDS011;65138;50.946;7.074;2022-12-18T10:54:34;4.82;;;2.63;;
76138;SDS011;65138;50.946;7.074;2022-12-18T10:56:40;3.72;;;2.70;;
76138;SDS011;65138;50.946;7.074;2022-12-18T10:59:07;5.00;;;2.67;;
76138;SDS011;65138;50.946;7.074;2022-12-18T11:01:54;5.18;;;3.00;;
76138;SDS011;65138;50.946;7.074;2022-12-18T11:04:25;4.80;;;3.05;;
76138;SDS011;65138;50.946;7.074;2022-12-18T11:06:57;5.03;;;2.92;;
76138;SDS011;65138;50.946;7.074;2022-12-18T11:09:26;5.10;;;2.83;;
76138;SDS011;65138;50.946;7.074;2022-12-18T11:11:54;5.07;;;3.30;;
76138;SDS011;65138;50.946;7.074;2022-12-18T11:14:22;6.20;;;3.47;;
76138;SDS011;65138;50.946;7.074;2022-12-18T11:16:59;5.25;;;3.17;;
76138;SDS011;65138;50.946;7.074;2022-12-18T11:19:33;7.53;;;3.58;;
76138;SDS011;65138;50.946;7.074;2022-12-18T11:22:17;4.53;;;2.72;;
76138;SDS011;65138;50.946;7.074;2022-12-18T11:24:51;7.70;;;3.70;;
76138;SDS011;65138;50.946;7.074;2022-12-18T11:27:29;4.13;;;2.60;;
76138;SDS011;65138;50.946;7.074;2022-12-18T11:30:07;4.75;;;3.03;;
76138;SDS011;65138;50.946;7.074;2022-12-18T11:32:35;4.22;;;2.80;;
76138;SDS011;65138;50.946;7.074;2022-12-18T11:38:02;11.68;;;7.45;;
76138;SDS011;65138;50.946;7.074;2022-12-18T11:40:36;10.88;;;6.07;;
76138;SDS011;65138;50.946;7.074;2022-12-18T11:43:15;9.27;;;5.43;;
76138;SDS011;65138;50.946;7.074;2022-12-18T11:45:49;10.38;;;5.18;;
76138;SDS011;65138;50.946;7.074;2022-12-18T11:48:52;9.38;;;4.85;;
76138;SDS011;65138;50.946;7.074;2022-12-18T11:51:26;8.30;;;4.70;;
76138;SDS011;65138;50.946;7.074;2022-12-18T11:53:57;7.93;;;3.97;;
76138;SDS011;65138;50.946;7.074;2022-12-18T11:56:26;7.35;;;4.00;;
76138;SDS011;65138;50.946;7.074;2022-12-18T11:59:00;8.80;;;5.15;;
76138;SDS011;65138;50.946;7.074;2022-12-18T12:01:48;7.15;;;4.00;;
76138;SDS011;65138;50.946;7.074;2022-12-18T12:04:27;5.85;;;3.53;;
76138;SDS011;65138;50.946;7.074;2022-12-18T12:09:56;6.50;;;3.88;;
76138;SDS011;65138;50.946;7.074;2022-12-18T12:12:55;5.07;;;3.60;;
76138;SDS011;65138;50.946;7.074;2022-12-18T12:18:38;5.93;;;3.72;;
76138;SDS011;65138;50.946;7.074;2022-12-18T12:26:37;6.03;;;3.78;;
76138;SDS011;65138;50.946;7.074;2022-12-18T12:31:48;4.78;;;3.35;;
76138;SDS011;65138;50.946;7.074;2022-12-18T12:34:36;6.25;;;3.63;;
76138;SDS011;65138;50.946;7.074;2022-12-18T12:37:39;5.72;;;3.45;;
76138;SDS011;65138;50.946;7.074;2022-12-18T12:40:27;6.63;;;3.67;;
76138;SDS011;65138;50.946;7.074;2022-12-18T12:43:15;5.53;;;3.95;;
76138;SDS011;65138;50.946;7.074;2022-12-18T12:45:53;5.25;;;3.65;;
76138;SDS011;65138;50.946;7.074;2022-12-18T12:48:33;7.60;;;4.20;;
76138;SDS011;65138;50.946;7.074;2022-12-18T12:51:08;5.78;;;3.33;;
76138;SDS011;65138;50.946;7.074;2022-12-18T12:53:47;6.47;;;3.80;;
76138;SDS011;65138;50.946;7.074;2022-12-18T12:56:14;7.40;;;4.35;;
76138;SDS011;65138;50.946;7.074;2022-12-18T12:58:51;8.15;;;4.13;;
76138;SDS011;65138;50.946;7.074;2022-12-18T13:09:04;6.00;;;4.05;;
76138;SDS011;65138;50.946;7.074;2022-12-18T13:11:40;7.40;;;3.65;;
76138;SDS011;65138;50.946;7.074;2022-12-18T13:14:28;7.30;;;4.30;;
76138;SDS011;65138;50.946;7.074;2022-12-18T13:17:16;7.10;;;4.28;;
76138;SDS011;65138;50.946;7.074;2022-12-18T13:19:47;5.40;;;3.65;;
76138;SDS011;65138;50.946;7.074;2022-12-18T13:28:12;6.75;;;3.90;;
76138;SDS011;65138;50.946;7.074;2022-12-18T13:35:42;6.78;;;4.00;;
76138;SDS011;65138;50.946;7.074;2022-12-18T13:41:04;8.23;;;4.85;;
76138;SDS011;65138;50.946;7.074;2022-12-18T13:43:54;7.75;;;4.72;;
76138;SDS011;65138;50.946;7.074;2022-12-18T13:46:29;7.85;;;4.15;;
76138;SDS011;65138;50.946;7.074;2022-12-18T13:49:18;7.22;;;4.68;;
76138;SDS011;65138;50.946;7.074;2022-12-18T13:52:22;7.13;;;5.03;;
76138;SDS011;65138;50.946;7.074;2022-12-18T13:54:52;7.32;;;4.28;;
76138;SDS011;65138;50.946;7.074;2022-12-18T13:57:30;6.45;;;4.68;;
76138;SDS011;65138;50.946;7.074;2022-12-18T13:59:58;6.35;;;4.25;;
76138;SDS011;65138;50.946;7.074;2022-12-18T14:02:44;8.52;;;4.40;;
76138;SDS011;65138;50.946;7.074;2022-12-18T14:08:00;7.60;;;4.70;;
76138;SDS011;65138;50.946;7.074;2022-12-18T14:10:35;7.20;;;4.68;;
76138;SDS011;65138;50.946;7.074;2022-12-18T14:13:05;7.72;;;4.40;;
76138;SDS011;65138;50.946;7.074;2022-12-18T14:18:15;7.05;;;4.85;;
76138;SDS011;65138;50.946;7.074;2022-12-18T14:20:43;7.50;;;4.78;;
76138;SDS011;65138;50.946;7.074;2022-12-18T14:26:18;9.70;;;4.88;;
76138;SDS011;65138;50.946;7.074;2022-12-18T14:31:19;10.20;;;4.57;;
76138;SDS011;65138;50.946;7.074;2022-12-18T14:33:45;7.07;;;4.57;;
76138;SDS011;65138;50.946;7.074;2022-12-18T14:36:14;9.85;;;5.60;;
76138;SDS011;65138;50.946;7.074;2022-12-18T14:38:42;9.18;;;5.07;;
76138;SDS011;65138;50.946;7.074;2022-12-18T14:41:11;9.48;;;5.65;;
76138;SDS011;65138;50.946;7.074;2022-12-18T14:43:40;12.55;;;5.93;;
76138;SDS011;65138;50.946;7.074;2022-12-18T14:51:46;9.32;;;4.75;;
76138;SDS011;65138;50.946;7.074;2022-12-18T14:54:15;7.18;;;4.82;;
76138;SDS011;65138;50.946;7.074;2022-12-18T14:56:43;7.57;;;4.50;;
76138;SDS011;65138;50.946;7.074;2022-12-18T14:59:29;8.35;;;5.20;;
76138;SDS011;65138;50.946;7.074;2022-12-18T15:07:42;10.18;;;5.00;;
76138;SDS011;65138;50.946;7.074;2022-12-18T15:10:14;9.13;;;5.90;;
76138;SDS011;65138;50.946;7.074;2022-12-18T15:18:10;9.80;;;5.70;;
76138;SDS011;65138;50.946;7.074;2022-12-18T15:20:43;8.50;;;5.38;;
76138;SDS011;65138;50.946;7.074;2022-12-18T15:23:25;9.13;;;5.95;;
76138;SDS011;65138;50.946;7.074;2022-12-18T15:26:01;12.32;;;5.30;;
76138;SDS011;65138;50.946;7.074;2022-12-18T15:28:35;9.02;;;5.07;;
76138;SDS011;65138;50.946;7.074;2022-12-18T15:31:04;8.13;;;5.10;;
76138;SDS011;65138;50.946;7.074;2022-12-18T15:36:13;7.93;;;4.97;;
76138;SDS011;65138;50.946;7.074;2022-12-18T15:38:40;7.35;;;4.68;;
76138;SDS011;65138;50.946;7.074;2022-12-18T15:41:16;7.95;;;5.50;;
76138;SDS011;65138;50.946;7.074;2022-12-18T15:43:44;8.25;;;5.22;;
76138;SDS011;65138;50.946;7.074;2022-12-18T15:46:15;6.95;;;5.18;;
76138;SDS011;65138;50.946;7.074;2022-12-18T15:48:47;7.88;;;4.82;;
76138;SDS011;65138;50.946;7.074;2022-12-18T15:51:18;6.43;;;4.43;;
76138;SDS011;65138;50.946;7.074;2022-12-18T15:53:47;7.10;;;4.95;;
76138;SDS011;65138;50.946;7.074;2022-12-18T15:56:15;7.90;;;5.00;;
76138;SDS011;65138;50.946;7.074;2022-12-18T15:59:00;10.90;;;4.97;;
76138;SDS011;65138;50.946;7.074;2022-12-18T16:01:28;9.55;;;4.93;;
76138;SDS011;65138;50.946;7.074;2022-12-18T16:03:55;9.95;;;4.97;;
76138;SDS011;65138;50.946;7.074;2022-12-18T16:06:21;9.75;;;5.30;;
76138;SDS011;65138;50.946;7.074;2022-12-18T16:08:48;7.00;;;4.30;;
76138;SDS011;65138;50.946;7.074;2022-12-18T16:11:19;10.30;;;5.50;;
76138;SDS011;65138;50.946;7.074;2022-12-18T16:16:30;10.45;;;5.13;;
76138;SDS011;65138;50.946;7.074;2022-12-18T16:18:56;7.90;;;4.53;;
76138;SDS011;65138;50.946;7.074;2022-12-18T16:21:22;8.75;;;5.22;;
76138;SDS011;65138;50.946;7.074;2022-12-18T16:23:47;8.60;;;5.47;;
76138;SDS011;65138;50.946;7.074;2022-12-18T16:26:13;7.88;;;5.03;;
76138;SDS011;65138;50.946;7.074;2022-12-18T16:28:39;8.40;;;4.85;;
76138;SDS011;65138;50.946;7.074;2022-12-18T16:31:05;8.40;;;4.95;;
76138;SDS011;65138;50.946;7.074;2022-12-18T16:33:30;8.45;;;5.18;;
76138;SDS011;65138;50.946;7.074;2022-12-18T16:35:59;8.55;;;5.55;;
76138;SDS011;65138;50.946;7.074;2022-12-18T16:38:24;8.65;;;5.85;;
76138;SDS011;65138;50.946;7.074;2022-12-18T16:40:50;7.35;;;5.07;;
76138;SDS011;65138;50.946;7.074;2022-12-18T16:43:34;8.57;;;5.18;;
76138;SDS011;65138;50.946;7.074;2022-12-18T16:46:00;10.15;;;5.85;;
76138;SDS011;65138;50.946;7.074;2022-12-18T16:48:25;8.77;;;5.43;;
76138;SDS011;65138;50.946;7.074;2022-12-18T16:50:53;8.00;;;4.88;;
76138;SDS011;65138;50.946;7.074;2022-12-18T16:53:25;9.75;;;5.95;;
76138;SDS011;65138;50.946;7.074;2022-12-18T16:55:55;8.80;;;5.30;;
76138;SDS011;65138;50.946;7.074;2022-12-18T16:58:21;7.85;;;4.95;;
76138;SDS011;65138;50.946;7.074;2022-12-18T17:00:47;9.23;;;5.45;;
76138;SDS011;65138;50.946;7.074;2022-12-18T17:03:15;9.07;;;5.47;;
76138;SDS011;65138;50.946;7.074;2022-12-18T17:05:41;8.68;;;5.75;;
76138;SDS011;65138;50.946;7.074;2022-12-18T17:08:06;9.73;;;5.82;;
76138;SDS011;65138;50.946;7.074;2022-12-18T17:10:33;9.45;;;6.03;;
76138;SDS011;65138;50.946;7.074;2022-12-18T17:13:00;8.20;;;5.35;;
76138;SDS011;65138;50.946;7.074;2022-12-18T17:15:25;9.45;;;6.38;;
76138;SDS011;65138;50.946;7.074;2022-12-18T17:17:51;10.52;;;5.95;;
76138;SDS011;65138;50.946;7.074;2022-12-18T17:20:16;9.23;;;5.85;;
76138;SDS011;65138;50.946;7.074;2022-12-18T17:22:42;14.23;;;6.10;;
76138;SDS011;65138;50.946;7.074;2022-12-18T17:25:08;10.63;;;5.97;;
76138;SDS011;65138;50.946;7.074;2022-12-18T17:27:34;15.10;;;7.18;;
76138;SDS011;65138;50.946;7.074;2022-12-18T17:29:59;12.30;;;6.50;;
76138;SDS011;65138;50.946;7.074;2022-12-18T17:32:25;15.18;;;7.03;;
76138;SDS011;65138;50.946;7.074;2022-12-18T17:34:50;14.77;;;5.90;;
76138;SDS011;65138;50.946;7.074;2022-12-18T17:37:16;12.50;;;6.25;;
76138;SDS011;65138;50.946;7.074;2022-12-18T17:39:41;11.90;;;6.30;;
76138;SDS011;65138;50.946;7.074;2022-12-18T17:42:07;11.63;;;6.05;;
76138;SDS011;65138;50.946;7.074;2022-12-18T17:44:34;10.77;;;6.80;;
76138;SDS011;65138;50.946;7.074;2022-12-18T17:47:00;12.13;;;6.82;;
76138;SDS011;65138;50.946;7.074;2022-12-18T17:49:26;9.73;;;6.18;;
76138;SDS011;65138;50.946;7.074;2022-12-18T17:51:55;10.50;;;6.63;;
76138;SDS011;65138;50.946;7.074;2022-12-18T17:54:21;9.45;;;5.82;;
76138;SDS011;65138;50.946;7.074;2022-12-18T17:56:49;10.45;;;5.95;;
76138;SDS011;65138;50.946;7.074;2022-12-18T17:59:15;10.13;;;6.75;;
76138;SDS011;65138;50.946;7.074;2022-12-18T18:01:41;9.25;;;5.88;;
76138;SDS011;65138;50.946;7.074;2022-12-18T18:04:06;12.20;;;6.25;;
76138;SDS011;65138;50.946;7.074;2022-12-18T18:06:32;9.93;;;5.63;;
76138;SDS011;65138;50.946;7.074;2022-12-18T18:08:57;9.75;;;5.97;;
76138;SDS011;65138;50.946;7.074;2022-12-18T18:11:23;10.73;;;6.30;;
76138;SDS011;65138;50.946;7.074;2022-12-18T18:14:15;9.60;;;6.15;;
76138;SDS011;65138;50.946;7.074;2022-12-18T18:16:43;9.15;;;6.25;;
76138;SDS011;65138;50.946;7.074;2022-12-18T18:19:12;9.70;;;5.70;;
76138;SDS011;65138;50.946;7.074;2022-12-18T18:21:40;9.82;;;5.88;;
76138;SDS011;65138;50.946;7.074;2022-12-18T18:24:08;7.78;;;5.57;;
76138;SDS011;65138;50.946;7.074;2022-12-18T18:26:35;9.45;;;6.38;;
76138;SDS011;65138;50.946;7.074;2022-12-18T18:29:02;9.25;;;6.00;;
76138;SDS011;65138;50.946;7.074;2022-12-18T18:31:29;10.05;;;5.93;;
76138;SDS011;65138;50.946;7.074;2022-12-18T18:33:55;8.80;;;5.63;;
76138;SDS011;65138;50.946;7.074;2022-12-18T18:36:22;9.18;;;5.60;;
76138;SDS011;65138;50.946;7.074;2022-12-18T18:38:48;9.48;;;5.38;;
76138;SDS011;65138;50.946;7.074;2022-12-18T18:41:14;10.73;;;6.07;;
76138;SDS011;65138;50.946;7.074;2022-12-18T18:43:40;10.18;;;6.15;;
76138;SDS011;65138;50.946;7.074;2022-12-18T18:46:06;10.00;;;5.45;;
76138;SDS011;65138;50.946;7.074;2022-12-18T18:48:32;10.82;;;6.03;;
76138;SDS011;65138;50.946;7.074;2022-12-18T18:51:04;11.93;;;6.40;;
76138;SDS011;65138;50.946;7.074;2022-12-18T18:53:35;13.75;;;7.85;;
76138;SDS011;65138;50.946;7.074;2022-12-18T18:56:03;15.60;;;9.60;;
76138;SDS011;65138;50.946;7.074;2022-12-18T18:58:31;22.95;;;10.93;;
76138;SDS011;65138;50.946;7.074;2022-12-18T19:01:02;18.52;;;9.27;;
76138;SDS011;65138;50.946;7.074;2022-12-18T19:03:29;16.83;;;9.18;;
76138;SDS011;65138;50.946;7.074;2022-12-18T19:05:59;14.70;;;8.77;;
76138;SDS011;65138;50.946;7.074;2022-12-18T19:08:26;12.93;;;7.15;;
76138;SDS011;65138;50.946;7.074;2022-12-18T19:10:55;12.85;;;7.18;;
76138;SDS011;65138;50.946;7.074;2022-12-18T19:13:22;11.48;;;6.72;;
76138;SDS011;65138;50.946;7.074;2022-12-18T19:15:51;12.43;;;6.68;;
76138;SDS011;65138;50.946;7.074;2022-12-18T19:18:19;11.05;;;6.50;;
76138;SDS011;65138;50.946;7.074;2022-12-18T19:20:55;11.30;;;6.78;;
76138;SDS011;65138;50.946;7.074;2022-12-18T19:23:25;11.93;;;6.53;;
76138;SDS011;65138;50.946;7.074;2022-12-18T19:25:51;13.13;;;6.38;;
76138;SDS011;65138;50.946;7.074;2022-12-18T19:28:16;11.10;;;6.78;;
76138;SDS011;65138;50.946;7.074;2022-12-18T19:30:42;10.70;;;6.28;;
76138;SDS011;65138;50.946;7.074;2022-12-18T19:33:08;11.25;;;6.22;;
76138;SDS011;65138;50.946;7.074;2022-12-18T19:35:34;10.50;;;6.45;;
76138;SDS011;65138;50.946;7.074;2022-12-18T19:37:59;9.90;;;5.97;;
76138;SDS011;65138;50.946;7.074;2022-12-18T19:40:25;11.07;;;6.40;;
76138;SDS011;65138;50.946;7.074;2022-12-18T19:42:50;13.18;;;6.68;;
76138;SDS011;65138;50.946;7.074;2022-12-18T19:45:16;11.65;;;6.90;;
76138;SDS011;65138;50.946;7.074;2022-12-18T19:47:42;11.23;;;7.07;;
76138;SDS011;65138;50.946;7.074;2022-12-18T19:50:07;12.85;;;6.38;;
76138;SDS011;65138;50.946;7.074;2022-12-18T19:52:34;10.88;;;7.28;;
76138;SDS011;65138;50.946;7.074;2022-12-18T19:55:00;10.27;;;5.85;;
76138;SDS011;65138;50.946;7.074;2022-12-18T19:57:26;10.60;;;6.20;;
76138;SDS011;65138;50.946;7.074;2022-12-18T19:59:52;10.43;;;6.03;;
76138;SDS011;65138;50.946;7.074;2022-12-18T20:02:17;11.35;;;6.28;;
76138;SDS011;65138;50.946;7.074;2022-12-18T20:04:44;11.65;;;6.28;;
76138;SDS011;65138;50.946;7.074;2022-12-18T20:07:10;11.85;;;6.72;;
76138;SDS011;65138;50.946;7.074;2022-12-18T20:09:36;11.63;;;6.47;;
76138;SDS011;65138;50.946;7.074;2022-12-18T20:12:02;12.73;;;7.18;;
76138;SDS011;65138;50.946;7.074;2022-12-18T20:14:28;12.60;;;6.25;;
76138;SDS011;65138;50.946;7.074;2022-12-18T20:16:54;11.20;;;6.43;;
76138;SDS011;65138;50.946;7.074;2022-12-18T20:19:19;12.32;;;7.18;;
76138;SDS011;65138;50.946;7.074;2022-12-18T20:21:45;10.95;;;6.22;;
76138;SDS011;65138;50.946;7.074;2022-12-18T20:24:11;12.73;;;6.88;;
76138;SDS011;65138;50.946;7.074;2022-12-18T20:26:37;10.43;;;6.35;;
76138;SDS011;65138;50.946;7.074;2022-12-18T20:29:02;11.07;;;6.05;;
76138;SDS011;65138;50.946;7.074;2022-12-18T20:31:28;10.02;;;5.88;;
76138;SDS011;65138;50.946;7.074;2022-12-18T20:33:54;9.82;;;5.60;;
76138;SDS011;65138;50.946;7.074;2022-12-18T20:36:21;11.23;;;5.78;;
76138;SDS011;65138;50.946;7.074;2022-12-18T20:38:46;11.25;;;6.47;;
76138;SDS011;65138;50.946;7.074;2022-12-18T20:41:15;9.07;;;5.63;;
76138;SDS011;65138;50.946;7.074;2022-12-18T20:43:42;11.32;;;6.00;;
76138;SDS011;65138;50.946;7.074;2022-12-18T20:46:09;12.48;;;6.88;;
76138;SDS011;65138;50.946;7.074;2022-12-18T20:48:36;14.05;;;7.07;;
76138;SDS011;65138;50.946;7.074;2022-12-18T20:51:03;10.60;;;6.03;;
76138;SDS011;65138;50.946;7.074;2022-12-18T20:53:31;11.10;;;6.57;;
76138;SDS011;65138;50.946;7.074;2022-12-18T20:55:57;13.10;;;6.40;;
76138;SDS011;65138;50.946;7.074;2022-12-18T20:58:23;9.95;;;5.45;;
76138;SDS011;65138;50.946;7.074;2022-12-18T21:00:49;11.45;;;6.07;;
76138;SDS011;65138;50.946;7.074;2022-12-18T21:03:26;9.95;;;6.20;;
76138;SDS011;65138;50.946;7.074;2022-12-18T21:05:51;10.95;;;6.60;;
76138;SDS011;65138;50.946;7.074;2022-12-18T21:08:17;9.98;;;5.78;;
76138;SDS011;65138;50.946;7.074;2022-12-18T21:10:42;9.10;;;5.60;;
76138;SDS011;65138;50.946;7.074;2022-12-18T21:13:08;10.52;;;6.60;;
76138;SDS011;65138;50.946;7.074;2022-12-18T21:15:33;9.80;;;5.90;;
76138;SDS011;65138;50.946;7.074;2022-12-18T21:17:59;10.07;;;6.25;;
76138;SDS011;65138;50.946;7.074;2022-12-18T21:20:25;9.90;;;5.70;;
76138;SDS011;65138;50.946;7.074;2022-12-18T21:22:51;10.45;;;6.05;;
76138;SDS011;65138;50.946;7.074;2022-12-18T21:25:16;11.38;;;6.43;;
76138;SDS011;65138;50.946;7.074;2022-12-18T21:27:42;9.27;;;5.57;;
76138;SDS011;65138;50.946;7.074;2022-12-18T21:30:08;9.88;;;5.78;;
76138;SDS011;65138;50.946;7.074;2022-12-18T21:32:33;10.20;;;5.28;;
76138;SDS011;65138;50.946;7.074;2022-12-18T21:34:59;10.02;;;6.28;;
76138;SDS011;65138;50.946;7.074;2022-12-18T21:37:24;10.57;;;5.82;;
76138;SDS011;65138;50.946;7.074;2022-12-18T21:39:50;8.05;;;5.50;;
76138;SDS011;65138;50.946;7.074;2022-12-18T21:42:16;10.73;;;5.88;;
76138;SDS011;65138;50.946;7.074;2022-12-18T21:45:00;10.45;;;6.20;;
76138;SDS011;65138;50.946;7.074;2022-12-18T21:47:26;8.43;;;5.45;;
76138;SDS011;65138;50.946;7.074;2022-12-18T21:49:51;7.85;;;5.28;;
76138;SDS011;65138;50.946;7.074;2022-12-18T21:52:17;10.85;;;6.10;;
76138;SDS011;65138;50.946;7.074;2022-12-18T21:54:43;10.45;;;5.80;;
76138;SDS011;65138;50.946;7.074;2022-12-18T21:57:09;9.60;;;5.82;;
76138;SDS011;65138;50.946;7.074;2022-12-18T21:59:38;9.60;;;5.32;;